Main page
METAR-TAF:

METAR-TAF

Airports :

Palma de Mallorca Airport

Palma de Mallorca, Spain

latitude: 39-33N, longitude: 002-44E, elevation: 4 m

Current weather observation

The report was made 39 minutes ago, at 19:30 UTC
Wind 4 kt from the South/Southwest, varying between South and West/Southwest
Temperature 27°C
Humidity 74%
Pressure 1014 hPa
Visibility 10 km or more
no clouds below 1500 m and no cumulonimbus

METAR: LEPA 281930Z 21004KT 170V240 CAVOK 27/22 Q1014 NOSIG

Time: 22:09 (20:09 UTC)

Forecast

The report was made 3 hours and 9 minutes ago, at 17:00 UTC
Forecast valid from 28 at 18 UTC to 29 at 18 UTC
Wind 10 kt from the Southwest
Visibility 10 km or more
Few clouds at a height of 2500 ft
Becoming
from 28 at 18 UTC to 28 at 20 UTC
Wind 9 kt from the East/Northeast
Becoming
from 29 at 10 UTC to 29 at 12 UTC
Wind 10 kt from the Southwest

TAF: LEPA 281700Z 2818/2918 23010KT 9999 FEW025 TX33/2912Z TN20/2906Z BECMG 2818/2820 06009KT BECMG 2910/2912 22010KT

Weather observations and forecasts of more than 4000 airports (METAR and TAF reports).

The available stations are represented by yellow and red dots on the map.

Hover mouse over dot to see the name of the station.

Then click to see weather observations and forecasts.

To change the map : click on the green buttons with a black cross to zoom in, on the green button with a dash to zoom out, or on the green arrows for adjacent maps.


METAR-TAF: